createdAt,value
2019-05-23T00:05:57.844Z,71.55
2019-05-23T00:12:13.917Z,71.69
2019-05-23T00:18:21.314Z,71.58
2019-05-23T00:24:27.346Z,71.61
2019-05-23T00:30:40.779Z,71.79
2019-05-23T00:36:47.128Z,71.96
2019-05-23T00:42:53.701Z,71.81
2019-05-23T00:49:00.526Z,71.90
2019-05-23T00:55:08.532Z,72.05
2019-05-23T01:01:14.331Z,72.04
2019-05-23T01:07:21.830Z,72.24
2019-05-23T01:13:28.683Z,72.39
2019-05-23T01:19:34.661Z,72.38
2019-05-23T01:25:40.930Z,72.42
2019-05-23T01:31:48.556Z,72.78
2019-05-23T01:37:57.661Z,72.82
2019-05-23T01:44:05.104Z,72.85
2019-05-23T01:50:13.092Z,72.82
2019-05-23T01:56:20.204Z,72.79
2019-05-23T02:02:27.456Z,72.83
2019-05-23T02:08:36.717Z,72.84
2019-05-23T02:14:45.905Z,72.91
2019-05-23T02:20:53.329Z,73.09
2019-05-23T02:26:59.976Z,73.06
2019-05-23T02:33:05.771Z,73.39
2019-05-23T02:39:29.779Z,73.50
2019-05-23T02:45:39.742Z,73.40
2019-05-23T02:51:46.687Z,73.52
2019-05-23T02:57:53.215Z,73.65
2019-05-23T03:04:05.848Z,73.79
2019-05-23T03:10:13.698Z,73.82
2019-05-23T03:16:24.247Z,73.82
2019-05-23T03:22:45.410Z,73.71
2019-05-23T03:28:52.599Z,73.84
2019-05-23T03:35:05.495Z,73.92
2019-05-23T03:41:12.545Z,73.89
2019-05-23T03:47:20.621Z,73.94
2019-05-23T03:53:28.691Z,74.17
2019-05-23T03:59:35.351Z,74.08
2019-05-23T04:05:43.873Z,74.27
2019-05-23T04:11:49.884Z,74.25
2019-05-23T04:17:55.896Z,74.10
2019-05-23T04:24:02.078Z,74.23
2019-05-23T04:30:10.318Z,74.27
2019-05-23T04:36:16.788Z,74.33
2019-05-23T04:42:22.887Z,74.39
2019-05-23T04:48:29.432Z,74.54
2019-05-23T04:54:35.408Z,74.39
2019-05-23T05:00:41.403Z,74.43
2019-05-23T05:06:47.312Z,74.54
2019-05-23T05:12:55.184Z,74.60
2019-05-23T05:19:01.466Z,74.46
2019-05-23T05:25:10.156Z,74.49
2019-05-23T05:31:15.934Z,74.39
2019-05-23T05:37:21.954Z,74.48
2019-05-23T05:43:28.002Z,74.43
2019-05-23T05:49:34.917Z,74.32
2019-05-23T05:55:40.906Z,74.09
2019-05-23T06:01:47.640Z,74.03
2019-05-23T06:07:54.957Z,73.88
2019-05-23T06:14:00.936Z,73.68
2019-05-23T06:20:08.043Z,73.30
2019-05-23T06:26:13.821Z,73.07
2019-05-23T06:32:21.331Z,72.70
2019-05-23T06:38:27.321Z,72.19
2019-05-23T06:44:33.861Z,70.86
2019-05-23T06:50:41.749Z,69.89
2019-05-23T06:56:48.527Z,68.76
2019-05-23T07:02:54.519Z,68.62
2019-05-23T07:09:01.426Z,67.96
2019-05-23T07:15:07.614Z,67.49
2019-05-23T07:21:14.179Z,65.66
2019-05-23T07:27:21.646Z,64.56
2019-05-23T07:33:27.811Z,63.26
2019-05-23T07:39:33.572Z,63.16
2019-05-23T07:45:44.339Z,61.07
2019-05-23T07:51:51.342Z,61.36
2019-05-23T07:57:58.219Z,61.29
2019-05-23T08:04:20.493Z,59.36
2019-05-23T08:10:14.036Z,55.95
2019-05-23T08:16:20.181Z,52.94
2019-05-23T08:22:27.763Z,53.00
2019-05-23T08:28:34.407Z,52.09
2019-05-23T08:34:42.912Z,50.55
2019-05-23T08:40:49.924Z,49.48
2019-05-23T08:46:56.659Z,45.88
2019-05-23T08:53:02.671Z,45.85
2019-05-23T08:59:10.929Z,44.82
2019-05-23T09:05:19.188Z,45.72
2019-05-23T09:11:26.192Z,45.47
2019-05-23T09:17:49.724Z,44.77
2019-05-23T09:23:40.776Z,44.68
2019-05-23T09:29:47.247Z,43.50
2019-05-23T09:35:53.417Z,43.62
2019-05-23T09:41:59.424Z,42.74
2019-05-23T09:48:06.041Z,42.21
2019-05-23T09:54:12.627Z,41.22
2019-05-23T10:00:21.658Z,39.01
2019-05-23T10:06:28.079Z,38.58
2019-05-23T10:12:34.146Z,39.18
2019-05-23T10:18:41.738Z,38.45
2019-05-23T10:24:47.592Z,38.05
2019-05-23T10:30:53.605Z,38.16
2019-05-23T10:36:59.646Z,37.67
2019-05-23T10:43:05.717Z,37.82
2019-05-23T10:49:12.101Z,37.77
2019-05-23T10:55:18.779Z,37.67
2019-05-23T11:01:24.947Z,36.97
2019-05-23T11:07:31.006Z,37.20
2019-05-23T11:13:38.653Z,36.35
2019-05-23T11:19:45.111Z,36.68
2019-05-23T11:25:51.412Z,35.21
2019-05-23T11:31:57.700Z,35.23
2019-05-23T11:38:04.017Z,35.28
2019-05-23T11:44:10.623Z,36.10
2019-05-23T11:50:17.135Z,35.78
2019-05-23T11:56:23.302Z,35.66
2019-05-23T12:02:33.547Z,35.98
2019-05-23T12:08:39.954Z,35.39
2019-05-23T12:14:46.202Z,35.38
2019-05-23T12:20:59.576Z,34.21
2019-05-23T12:27:04.231Z,34.58
2019-05-23T12:33:10.560Z,34.73
2019-05-23T12:39:16.942Z,33.89
2019-05-23T12:45:24.987Z,32.98
2019-05-23T12:51:33.785Z,32.82
2019-05-23T12:57:39.872Z,32.42
2019-05-23T13:03:47.411Z,33.82
2019-05-23T13:09:53.295Z,33.40
2019-05-23T13:15:59.323Z,33.08
2019-05-23T13:22:05.738Z,31.55
2019-05-23T13:28:12.155Z,32.20
2019-05-23T13:34:18.819Z,29.49
2019-05-23T13:40:25.315Z,30.03
2019-05-23T13:46:31.722Z,29.92
2019-05-23T13:52:38.793Z,30.05
2019-05-23T13:58:45.501Z,29.21
2019-05-23T14:04:52.226Z,28.84
2019-05-23T14:10:58.466Z,28.87
2019-05-23T14:17:27.988Z,28.05
2019-05-23T14:23:34.453Z,27.22
2019-05-23T14:29:40.782Z,26.96
2019-05-23T14:35:48.868Z,27.02
2019-05-23T14:42:00.834Z,27.07
2019-05-23T14:48:14.369Z,27.90
2019-05-23T14:54:25.632Z,27.46
2019-05-23T15:00:32.874Z,26.04
2019-05-23T15:06:39.587Z,26.69
2019-05-23T15:12:45.753Z,25.56
2019-05-23T15:18:52.106Z,26.20
2019-05-23T15:24:58.627Z,26.18
2019-05-23T15:31:05.486Z,26.43
2019-05-23T15:37:12.669Z,27.55
2019-05-23T15:43:18.810Z,27.87
2019-05-23T15:49:25.991Z,28.63
2019-05-23T15:55:40.790Z,27.51
2019-05-23T16:01:59.528Z,27.33
2019-05-23T16:08:06.391Z,27.73
2019-05-23T16:14:12.921Z,27.92
2019-05-23T16:20:19.144Z,28.11
2019-05-23T16:26:25.494Z,28.67
2019-05-23T16:32:31.753Z,28.86
2019-05-23T16:38:38.140Z,28.43
2019-05-23T16:44:44.560Z,27.66
2019-05-23T16:50:51.117Z,28.11
2019-05-23T16:57:25.566Z,28.84
2019-05-23T17:03:41.638Z,27.63
2019-05-23T17:10:08.125Z,27.09
2019-05-23T17:16:15.772Z,27.01
2019-05-23T17:22:55.783Z,26.90
2019-05-23T17:29:04.207Z,26.96
2019-05-23T17:35:10.797Z,26.85
2019-05-23T17:41:17.436Z,26.12
2019-05-23T17:47:23.953Z,25.96
2019-05-23T17:53:30.467Z,25.85
2019-05-23T17:59:37.003Z,25.84
2019-05-23T18:05:43.272Z,26.12
2019-05-23T18:11:49.587Z,26.10
2019-05-23T18:17:58.763Z,26.21
2019-05-23T18:24:06.409Z,26.27
2019-05-23T18:30:27.591Z,26.21
2019-05-23T18:36:33.634Z,26.35
2019-05-23T18:42:40.156Z,26.51
2019-05-23T18:48:46.527Z,26.91
2019-05-23T18:54:52.311Z,26.96
2019-05-23T19:01:19.189Z,27.26
2019-05-23T19:07:25.293Z,27.38
2019-05-23T19:13:31.497Z,27.66
2019-05-23T19:19:37.471Z,28.22
2019-05-23T19:25:44.873Z,29.32
2019-05-23T19:31:50.796Z,29.91
2019-05-23T19:37:56.606Z,30.60
2019-05-23T19:44:02.785Z,30.89
2019-05-23T19:50:09.139Z,31.32
2019-05-23T19:56:15.398Z,31.46
2019-05-23T20:02:45.002Z,31.48
2019-05-23T20:08:52.668Z,31.89
2019-05-23T20:14:58.490Z,33.78
2019-05-23T20:21:04.370Z,34.85
2019-05-23T20:27:10.570Z,36.52
2019-05-23T20:33:16.405Z,37.62
2019-05-23T20:39:22.850Z,38.97
2019-05-23T20:45:29.149Z,40.79
2019-05-23T20:51:35.654Z,44.36
2019-05-23T20:57:41.502Z,44.86
2019-05-23T21:03:48.597Z,45.84
2019-05-23T21:09:54.881Z,45.88
2019-05-23T21:16:00.786Z,46.50
2019-05-23T21:22:06.727Z,47.32
2019-05-23T21:28:12.472Z,48.56
2019-05-23T21:34:21.863Z,49.78
2019-05-23T21:40:54.235Z,50.82
2019-05-23T21:47:00.146Z,51.52
2019-05-23T21:53:05.930Z,52.25
2019-05-23T21:59:11.671Z,53.12
2019-05-23T22:05:18.710Z,53.27
2019-05-23T22:11:24.526Z,53.86
2019-05-23T22:17:31.205Z,55.47
2019-05-23T22:23:37.410Z,56.29
2019-05-23T22:29:45.335Z,56.08
2019-05-23T22:35:51.342Z,55.43
2019-05-23T22:41:57.700Z,55.35
2019-05-23T22:48:03.771Z,56.51
2019-05-23T22:54:09.697Z,56.52
2019-05-23T23:00:18.206Z,56.57
2019-05-23T23:06:24.403Z,57.29
2019-05-23T23:12:31.945Z,57.24
2019-05-23T23:18:38.217Z,56.84
2019-05-23T23:24:44.030Z,57.31
2019-05-23T23:30:51.570Z,57.56
2019-05-23T23:36:57.353Z,58.31
2019-05-23T23:43:03.233Z,59.11
2019-05-23T23:49:26.387Z,59.53
2019-05-23T23:55:49.912Z,59.86
